createdAt,value
2018-02-01T00:00:06.215Z,7.19
2018-02-01T00:01:11.335Z,7.19
2018-02-01T00:02:05.814Z,7.19
2018-02-01T00:03:06.392Z,7.19
2018-02-01T00:04:06.642Z,7.19
2018-02-01T00:05:05.477Z,7.12
2018-02-01T00:06:05.578Z,7.12
2018-02-01T00:07:05.914Z,7.12
2018-02-01T00:08:06.232Z,7.12
2018-02-01T00:09:06.160Z,7.12
2018-02-01T00:10:05.976Z,7.12
2018-02-01T00:11:05.903Z,7.12
2018-02-01T00:12:06.377Z,7.12
2018-02-01T00:13:06.890Z,7.12
2018-02-01T00:14:06.220Z,7.12
2018-02-01T00:15:05.987Z,7.12
2018-02-01T00:16:05.911Z,7.12
2018-02-01T00:17:05.612Z,7.12
2018-02-01T00:18:06.062Z,7.12
2018-02-01T00:19:06.060Z,7.12
2018-02-01T00:20:06.423Z,7.12
2018-02-01T00:21:06.061Z,7.12
2018-02-01T00:22:05.598Z,7.12
2018-02-01T00:23:05.600Z,7.12
2018-02-01T00:24:06.294Z,7.12
2018-02-01T00:25:10.907Z,7.12
2018-02-01T00:26:06.377Z,7.12
2018-02-01T00:27:06.784Z,7.12
2018-02-01T00:28:06.382Z,7.12
2018-02-01T00:29:05.699Z,7.12
2018-02-01T00:30:06.190Z,7.12
2018-02-01T00:31:06.001Z,7.06
2018-02-01T00:32:05.587Z,7.06
2018-02-01T00:33:06.523Z,7.06
2018-02-01T00:34:10.933Z,7.06
2018-02-01T00:35:06.378Z,7.06
2018-02-01T00:36:05.669Z,7.06
2018-02-01T00:37:05.501Z,7.06
2018-02-01T00:38:06.232Z,7.06
2018-02-01T00:39:05.582Z,7.06
2018-02-01T00:40:11.741Z,7.06
2018-02-01T00:41:06.650Z,7.06
2018-02-01T00:42:06.053Z,7.06
2018-02-01T00:43:05.826Z,7.00
2018-02-01T00:44:05.673Z,7.00
2018-02-01T00:45:06.228Z,7.00
2018-02-01T00:46:05.982Z,7.00
2018-02-01T00:47:05.670Z,7.00
2018-02-01T00:48:05.910Z,7.00
2018-02-01T00:49:05.614Z,7.00
2018-02-01T00:50:05.989Z,7.00
2018-02-01T00:51:05.826Z,7.00
2018-02-01T00:52:05.726Z,6.94
2018-02-01T00:53:06.314Z,7.00
2018-02-01T00:54:06.005Z,6.94
2018-02-01T00:55:06.393Z,6.94
2018-02-01T00:56:06.305Z,6.94
2018-02-01T00:57:06.393Z,6.94
2018-02-01T00:58:05.671Z,6.94
2018-02-01T00:59:05.744Z,6.94
2018-02-01T01:00:06.138Z,6.94
2018-02-01T01:01:05.904Z,6.94
2018-02-01T01:02:06.221Z,6.94
2018-02-01T01:03:06.324Z,6.88
2018-02-01T01:04:05.991Z,6.88
2018-02-01T01:05:05.826Z,6.88
2018-02-01T01:06:11.387Z,6.88
2018-02-01T01:07:05.984Z,6.88
2018-02-01T01:08:06.551Z,6.88
2018-02-01T01:09:06.151Z,6.88
2018-02-01T01:10:06.231Z,6.88
2018-02-01T01:11:05.911Z,6.88
2018-02-01T01:12:06.225Z,6.81
2018-02-01T01:13:05.820Z,6.81
2018-02-01T01:14:05.701Z,6.81
2018-02-01T01:15:06.335Z,6.81
2018-02-01T01:16:05.861Z,6.81
2018-02-01T01:17:05.683Z,6.81
2018-02-01T01:18:06.242Z,6.81
2018-02-01T01:19:05.986Z,6.81
2018-02-01T01:20:05.990Z,6.81
2018-02-01T01:21:11.056Z,6.81
2018-02-01T01:22:05.833Z,6.75
2018-02-01T01:23:05.662Z,6.81
2018-02-01T01:24:06.465Z,6.75
2018-02-01T01:25:06.123Z,6.81
2018-02-01T01:26:06.073Z,6.75
2018-02-01T01:27:05.754Z,6.75
2018-02-01T01:28:05.755Z,6.75
2018-02-01T01:29:05.903Z,6.75
2018-02-01T01:30:05.895Z,6.75
2018-02-01T01:31:06.070Z,6.75
2018-02-01T01:32:06.159Z,6.75
2018-02-01T01:33:05.826Z,6.75
2018-02-01T01:34:05.774Z,6.75
2018-02-01T01:35:05.827Z,6.69
2018-02-01T01:36:10.707Z,6.69
2018-02-01T01:37:06.226Z,6.69
2018-02-01T01:38:06.075Z,6.69
2018-02-01T01:39:10.987Z,6.69
2018-02-01T01:40:05.911Z,6.69
2018-02-01T01:41:05.614Z,6.69
2018-02-01T01:42:05.857Z,6.75
2018-02-01T01:43:06.393Z,6.69
2018-02-01T01:44:05.897Z,6.69
2018-02-01T01:45:11.790Z,6.69
2018-02-01T01:46:06.468Z,6.69
2018-02-01T01:47:12.901Z,6.69
2018-02-01T01:48:06.231Z,6.69
2018-02-01T01:49:06.062Z,6.69
2018-02-01T01:50:06.401Z,6.69
2018-02-01T01:51:11.386Z,6.69
2018-02-01T01:52:06.115Z,6.69
2018-02-01T01:53:05.589Z,6.69
2018-02-01T01:54:05.666Z,6.69
2018-02-01T01:55:06.437Z,6.69
2018-02-01T01:56:05.844Z,6.69
2018-02-01T01:57:06.467Z,6.69
2018-02-01T01:58:05.992Z,6.69
2018-02-01T01:59:06.151Z,6.69
2018-02-01T02:00:06.329Z,6.69
2018-02-01T02:01:06.299Z,6.69
2018-02-01T02:02:06.007Z,6.69
2018-02-01T02:03:05.667Z,6.69
2018-02-01T02:04:05.907Z,6.69
2018-02-01T02:05:06.162Z,6.69
2018-02-01T02:06:11.040Z,6.69
2018-02-01T02:07:05.923Z,6.69
2018-02-01T02:08:06.318Z,6.69
2018-02-01T02:09:06.232Z,6.62
2018-02-01T02:10:06.229Z,6.62
2018-02-01T02:11:06.877Z,6.62
2018-02-01T02:12:05.973Z,6.62
2018-02-01T02:13:06.374Z,6.62
2018-02-01T02:14:06.076Z,6.62
2018-02-01T02:15:12.157Z,6.62
2018-02-01T02:16:05.779Z,6.62
2018-02-01T02:17:06.315Z,6.62
2018-02-01T02:18:05.666Z,6.62
2018-02-01T02:19:06.310Z,6.62
2018-02-01T02:20:11.493Z,6.62
2018-02-01T02:21:05.912Z,6.62
2018-02-01T02:22:06.136Z,6.62
2018-02-01T02:23:05.840Z,6.62
2018-02-01T02:24:06.398Z,6.62
2018-02-01T02:25:06.166Z,6.62
2018-02-01T02:26:06.078Z,6.62
2018-02-01T02:27:06.231Z,6.62
2018-02-01T02:28:06.146Z,6.62
2018-02-01T02:29:05.625Z,6.62
2018-02-01T02:30:05.688Z,6.62
2018-02-01T02:31:05.993Z,6.62
2018-02-01T02:32:05.667Z,6.62
2018-02-01T02:33:07.514Z,6.62
2018-02-01T02:34:11.073Z,6.62
2018-02-01T02:35:05.735Z,6.62
2018-02-01T02:36:05.510Z,6.62
2018-02-01T02:37:06.139Z,6.56
2018-02-01T02:38:06.169Z,6.56
2018-02-01T02:39:05.866Z,6.56
2018-02-01T02:40:05.504Z,6.56
2018-02-01T02:41:05.980Z,6.56
2018-02-01T02:42:05.560Z,6.56
2018-02-01T02:43:05.986Z,6.56
2018-02-01T02:44:05.896Z,6.56
2018-02-01T02:45:05.607Z,6.56
2018-02-01T02:46:06.081Z,6.56
2018-02-01T02:47:05.897Z,6.56
2018-02-01T02:48:05.678Z,6.56
2018-02-01T02:49:06.067Z,6.56
2018-02-01T02:50:05.744Z,6.56
2018-02-01T02:51:06.311Z,6.56
2018-02-01T02:52:06.071Z,6.56
2018-02-01T02:53:05.587Z,6.56
2018-02-01T02:54:06.319Z,6.56
2018-02-01T02:55:06.227Z,6.56
2018-02-01T02:56:05.587Z,6.56
2018-02-01T02:57:06.205Z,6.56
2018-02-01T02:58:05.977Z,6.62
2018-02-01T02:59:05.849Z,6.62
2018-02-01T03:00:06.306Z,6.56
2018-02-01T03:01:05.988Z,6.56
2018-02-01T03:02:06.065Z,6.62
2018-02-01T03:03:05.664Z,6.56
2018-02-01T03:04:05.979Z,6.56
2018-02-01T03:05:06.298Z,6.56
2018-02-01T03:06:11.482Z,6.56
2018-02-01T03:07:06.090Z,6.56
2018-02-01T03:08:06.065Z,6.56
2018-02-01T03:09:06.064Z,6.56
2018-02-01T03:10:05.993Z,6.56
2018-02-01T03:11:05.911Z,6.56
2018-02-01T03:12:05.975Z,6.50
2018-02-01T03:13:06.153Z,6.50
2018-02-01T03:14:06.031Z,6.50
2018-02-01T03:15:05.757Z,6.44
2018-02-01T03:16:05.667Z,6.44
2018-02-01T03:17:05.774Z,6.38
2018-02-01T03:18:05.823Z,6.31
2018-02-01T03:19:06.256Z,6.25
2018-02-01T03:20:05.982Z,6.19
2018-02-01T03:21:06.378Z,6.19
2018-02-01T03:22:05.576Z,6.12
2018-02-01T03:23:05.739Z,6.06
2018-02-01T03:24:06.325Z,6.00
2018-02-01T03:25:06.062Z,6.00
2018-02-01T03:26:06.386Z,6.00
2018-02-01T03:27:05.660Z,5.94
2018-02-01T03:28:06.062Z,5.88
2018-02-01T03:29:06.075Z,5.88
2018-02-01T03:30:06.006Z,5.88
2018-02-01T03:31:05.704Z,5.75
2018-02-01T03:32:06.332Z,5.75
2018-02-01T03:33:05.661Z,5.69
2018-02-01T03:34:05.720Z,5.69
2018-02-01T03:35:06.153Z,5.69
2018-02-01T03:36:05.704Z,5.69
2018-02-01T03:37:06.324Z,5.56
2018-02-01T03:38:06.213Z,5.56
2018-02-01T03:39:06.221Z,5.50
2018-02-01T03:40:11.196Z,5.50
2018-02-01T03:41:05.662Z,5.50
2018-02-01T03:42:06.376Z,5.44
2018-02-01T03:43:05.984Z,5.44
2018-02-01T03:44:06.463Z,5.44
2018-02-01T03:45:06.378Z,5.38
2018-02-01T03:46:06.065Z,5.38
2018-02-01T03:47:06.721Z,5.38
2018-02-01T03:48:05.904Z,5.31
2018-02-01T03:49:06.094Z,5.31
2018-02-01T03:50:06.399Z,5.31
2018-02-01T03:51:06.224Z,5.25
2018-02-01T03:52:05.825Z,5.25
2018-02-01T03:53:06.482Z,5.25
2018-02-01T03:54:05.983Z,5.25
2018-02-01T03:55:06.239Z,5.19
2018-02-01T03:56:05.893Z,5.19
2018-02-01T03:57:06.303Z,5.19
2018-02-01T03:58:05.982Z,5.19
2018-02-01T03:59:06.071Z,5.12
2018-02-01T04:00:11.502Z,5.12
2018-02-01T04:01:06.388Z,5.12
2018-02-01T04:02:06.458Z,5.12
2018-02-01T04:03:05.920Z,5.12
2018-02-01T04:04:10.659Z,5.12
2018-02-01T04:05:06.401Z,5.12
2018-02-01T04:06:05.842Z,5.06
2018-02-01T04:07:11.131Z,5.06
2018-02-01T04:08:06.150Z,5.06
2018-02-01T04:09:06.381Z,5.06
2018-02-01T04:10:06.403Z,5.06
2018-02-01T04:11:05.978Z,5.06
2018-02-01T04:12:05.915Z,5.06
2018-02-01T04:13:06.225Z,5.06
2018-02-01T04:14:05.832Z,5.00
2018-02-01T04:15:05.904Z,5.00
2018-02-01T04:16:05.709Z,5.00
2018-02-01T04:17:06.428Z,5.00
2018-02-01T04:18:07.335Z,5.00
2018-02-01T04:19:05.696Z,5.00
2018-02-01T04:20:05.580Z,5.00
2018-02-01T04:21:06.196Z,5.00
2018-02-01T04:22:05.865Z,5.00
2018-02-01T04:23:06.296Z,4.94
2018-02-01T04:24:05.905Z,5.00
2018-02-01T04:25:06.222Z,4.94
2018-02-01T04:26:05.494Z,4.94
2018-02-01T04:27:06.471Z,4.94
2018-02-01T04:28:05.680Z,4.94
2018-02-01T04:29:05.821Z,4.94
2018-02-01T04:30:05.899Z,4.94
2018-02-01T04:31:05.592Z,4.94
2018-02-01T04:32:05.987Z,4.94
2018-02-01T04:33:05.929Z,4.88
2018-02-01T04:34:05.714Z,4.88
2018-02-01T04:35:06.226Z,4.88
2018-02-01T04:36:05.995Z,4.88
2018-02-01T04:37:05.742Z,4.88
2018-02-01T04:38:05.759Z,4.88
2018-02-01T04:39:05.741Z,4.88
2018-02-01T04:40:05.652Z,4.88
2018-02-01T04:41:10.780Z,4.81
2018-02-01T04:42:06.304Z,4.81
2018-02-01T04:43:05.836Z,4.81
2018-02-01T04:44:06.542Z,4.81
2018-02-01T04:45:06.456Z,4.81
2018-02-01T04:46:06.390Z,4.81
2018-02-01T04:47:05.683Z,4.81
2018-02-01T04:48:06.394Z,4.81
2018-02-01T04:49:05.823Z,4.81
2018-02-01T04:50:06.622Z,4.75
2018-02-01T04:51:06.062Z,4.75
2018-02-01T04:52:06.179Z,4.75
2018-02-01T04:53:06.063Z,4.75
2018-02-01T04:54:06.460Z,4.75
2018-02-01T04:55:06.138Z,4.75
2018-02-01T04:56:06.056Z,4.75
2018-02-01T04:57:11.544Z,4.69
2018-02-01T04:58:06.311Z,4.69
2018-02-01T04:59:05.801Z,4.69
2018-02-01T05:00:06.220Z,4.69
2018-02-01T05:01:05.914Z,4.69
2018-02-01T05:02:06.093Z,4.62
2018-02-01T05:03:06.393Z,4.62
2018-02-01T05:04:06.297Z,4.62
2018-02-01T05:05:06.333Z,4.62
2018-02-01T05:06:05.857Z,4.62
2018-02-01T05:07:05.685Z,4.62
2018-02-01T05:08:06.074Z,4.62
2018-02-01T05:09:10.834Z,4.56
2018-02-01T05:10:06.393Z,4.56
2018-02-01T05:11:06.230Z,4.56
2018-02-01T05:12:06.092Z,4.56
2018-02-01T05:13:05.951Z,4.56
2018-02-01T05:14:05.875Z,4.56
2018-02-01T05:15:05.901Z,4.56
2018-02-01T05:16:11.662Z,4.56
2018-02-01T05:17:06.540Z,4.50
2018-02-01T05:18:06.310Z,4.50
2018-02-01T05:19:05.980Z,4.50
2018-02-01T05:20:05.707Z,4.50
2018-02-01T05:21:05.880Z,4.50
2018-02-01T05:22:06.158Z,4.50
2018-02-01T05:23:06.358Z,4.50
2018-02-01T05:24:06.291Z,4.50
2018-02-01T05:25:06.430Z,4.50
2018-02-01T05:26:06.471Z,4.50
2018-02-01T05:27:06.190Z,4.44
2018-02-01T05:28:10.910Z,4.44
2018-02-01T05:29:06.459Z,4.44
2018-02-01T05:30:11.202Z,4.44
2018-02-01T05:31:05.937Z,4.44
2018-02-01T05:32:06.476Z,4.38
2018-02-01T05:33:06.347Z,4.38
2018-02-01T05:34:05.979Z,4.38
2018-02-01T05:35:06.388Z,4.38
2018-02-01T05:36:05.759Z,4.38
2018-02-01T05:37:05.557Z,4.31
2018-02-01T05:38:06.223Z,4.31
2018-02-01T05:39:06.461Z,4.31
2018-02-01T05:40:05.652Z,4.31
2018-02-01T05:41:05.513Z,4.31
2018-02-01T05:42:06.391Z,4.31
2018-02-01T05:43:06.320Z,4.31
2018-02-01T05:44:05.790Z,4.31
2018-02-01T05:45:06.369Z,4.25
2018-02-01T05:46:06.063Z,4.25
2018-02-01T05:47:10.793Z,4.25
2018-02-01T05:48:06.361Z,4.25
2018-02-01T05:49:06.231Z,4.25
2018-02-01T05:50:06.232Z,4.25
2018-02-01T05:51:05.656Z,4.25
2018-02-01T05:52:06.134Z,4.25
2018-02-01T05:53:05.742Z,4.25
2018-02-01T05:54:05.592Z,4.25
2018-02-01T05:55:06.455Z,4.25
2018-02-01T05:56:06.321Z,4.25
2018-02-01T05:57:06.123Z,4.25
2018-02-01T05:58:06.070Z,4.25
2018-02-01T05:59:06.483Z,4.25
2018-02-01T06:00:06.467Z,4.25
2018-02-01T06:01:11.637Z,4.25
2018-02-01T06:02:06.558Z,4.19
2018-02-01T06:03:05.946Z,4.25
2018-02-01T06:04:06.068Z,4.25
2018-02-01T06:05:05.827Z,4.19
2018-02-01T06:06:06.005Z,4.19
2018-02-01T06:07:06.484Z,4.19
2018-02-01T06:08:05.866Z,4.19
2018-02-01T06:09:06.379Z,4.19
2018-02-01T06:10:06.541Z,4.19
2018-02-01T06:11:05.988Z,4.19
2018-02-01T06:12:06.067Z,4.12
2018-02-01T06:13:05.782Z,4.12
2018-02-01T06:14:06.220Z,4.12
2018-02-01T06:15:05.986Z,4.12
2018-02-01T06:16:05.740Z,4.12
2018-02-01T06:17:06.481Z,4.12
2018-02-01T06:18:05.596Z,4.12
2018-02-01T06:19:06.455Z,4.12
2018-02-01T06:20:05.549Z,4.06
2018-02-01T06:21:05.589Z,4.06
2018-02-01T06:22:05.819Z,4.06
2018-02-01T06:23:06.709Z,4.06
2018-02-01T06:24:05.818Z,4.06
2018-02-01T06:25:06.474Z,4.06
2018-02-01T06:26:06.084Z,4.06
2018-02-01T06:27:06.141Z,4.00
2018-02-01T06:28:06.215Z,4.00
2018-02-01T06:29:06.303Z,4.00
2018-02-01T06:30:05.566Z,4.00
2018-02-01T06:31:05.587Z,4.00
2018-02-01T06:32:06.068Z,4.00
2018-02-01T06:33:06.314Z,4.00
2018-02-01T06:34:05.787Z,4.00
2018-02-01T06:35:05.979Z,4.00
2018-02-01T06:36:05.502Z,3.94
2018-02-01T06:37:06.383Z,3.94
2018-02-01T06:38:05.708Z,3.94
2018-02-01T06:39:05.590Z,3.94
2018-02-01T06:40:06.153Z,3.94
2018-02-01T06:41:05.859Z,3.94
2018-02-01T06:42:06.313Z,3.94
2018-02-01T06:43:05.988Z,3.94
2018-02-01T06:44:05.955Z,3.94
2018-02-01T06:45:05.930Z,3.94
2018-02-01T06:46:05.576Z,3.94
2018-02-01T06:47:06.392Z,3.94
2018-02-01T06:48:06.071Z,3.94
2018-02-01T06:49:06.631Z,3.94
2018-02-01T06:50:06.142Z,3.94
2018-02-01T06:51:06.155Z,3.94
2018-02-01T06:52:05.741Z,3.94
2018-02-01T06:53:06.068Z,3.94
2018-02-01T06:54:07.025Z,3.88
2018-02-01T06:55:05.974Z,3.88
2018-02-01T06:56:05.737Z,3.88
2018-02-01T06:57:06.545Z,3.88
2018-02-01T06:58:10.551Z,3.88
2018-02-01T06:59:05.843Z,3.88
2018-02-01T07:00:05.826Z,3.88
2018-02-01T07:01:05.800Z,3.88
2018-02-01T07:02:06.016Z,3.88
2018-02-01T07:03:06.148Z,3.81
2018-02-01T07:04:05.586Z,3.81
2018-02-01T07:05:05.514Z,3.81
2018-02-01T07:06:06.472Z,3.81
2018-02-01T07:07:06.083Z,3.81
2018-02-01T07:08:05.900Z,3.81
2018-02-01T07:09:06.544Z,3.81
2018-02-01T07:10:06.304Z,3.81
2018-02-01T07:11:06.268Z,3.81
2018-02-01T07:12:06.380Z,3.81
2018-02-01T07:13:05.760Z,3.81
2018-02-01T07:14:06.223Z,3.81
2018-02-01T07:15:05.740Z,3.81
2018-02-01T07:16:05.670Z,3.75
2018-02-01T07:17:06.470Z,3.75
2018-02-01T07:18:06.214Z,3.75
2018-02-01T07:19:06.166Z,3.75
2018-02-01T07:20:06.387Z,3.75
2018-02-01T07:21:06.142Z,3.75
2018-02-01T07:22:05.945Z,3.75
2018-02-01T07:23:05.906Z,3.75
2018-02-01T07:24:06.423Z,3.75
2018-02-01T07:25:05.654Z,3.75
2018-02-01T07:26:05.899Z,3.75
2018-02-01T07:27:06.069Z,3.75
2018-02-01T07:28:05.829Z,3.75
2018-02-01T07:29:05.715Z,3.75
2018-02-01T07:30:06.244Z,3.75
2018-02-01T07:31:06.152Z,3.75
2018-02-01T07:32:05.815Z,3.75
2018-02-01T07:33:06.459Z,3.75
2018-02-01T07:34:05.893Z,3.75
2018-02-01T07:35:06.324Z,3.75
2018-02-01T07:36:06.105Z,3.75
2018-02-01T07:37:05.718Z,3.75
2018-02-01T07:38:06.296Z,3.75
2018-02-01T07:39:05.498Z,3.75
2018-02-01T07:40:06.167Z,3.75
2018-02-01T07:41:05.684Z,3.69
2018-02-01T07:42:05.659Z,3.75
2018-02-01T07:43:05.855Z,3.75
2018-02-01T07:44:06.170Z,3.81
2018-02-01T07:45:06.708Z,3.81
2018-02-01T07:46:05.812Z,3.88
2018-02-01T07:47:06.471Z,3.88
2018-02-01T07:48:06.465Z,3.88
2018-02-01T07:49:05.672Z,3.88
2018-02-01T07:50:06.215Z,3.88
2018-02-01T07:51:05.496Z,3.88
2018-02-01T07:52:05.604Z,3.88
2018-02-01T07:53:06.057Z,3.88
2018-02-01T07:54:06.236Z,3.88
2018-02-01T07:55:06.812Z,3.81
2018-02-01T07:56:06.334Z,3.81
2018-02-01T07:57:05.900Z,3.81
2018-02-01T07:58:05.824Z,3.81
2018-02-01T07:59:06.473Z,3.81
2018-02-01T08:00:06.315Z,3.81
2018-02-01T08:01:06.469Z,3.81
2018-02-01T08:02:05.980Z,3.81
2018-02-01T08:03:05.658Z,3.81
2018-02-01T08:04:06.629Z,3.81
2018-02-01T08:05:06.390Z,3.81
2018-02-01T08:06:06.234Z,3.81
2018-02-01T08:07:06.052Z,3.81
2018-02-01T08:08:05.748Z,3.81
2018-02-01T08:09:06.197Z,3.81
2018-02-01T08:10:05.744Z,3.81
2018-02-01T08:11:11.744Z,3.81
2018-02-01T08:12:06.524Z,3.81
2018-02-01T08:13:05.986Z,3.81
2018-02-01T08:14:10.820Z,3.81
2018-02-01T08:15:06.317Z,3.88
2018-02-01T08:16:06.401Z,3.88
2018-02-01T08:17:05.992Z,3.88
2018-02-01T08:18:05.628Z,3.88
2018-02-01T08:19:11.471Z,3.88
2018-02-01T08:20:05.608Z,3.94
2018-02-01T08:21:05.750Z,3.94
2018-02-01T08:22:06.637Z,3.94
2018-02-01T08:23:06.394Z,3.94
2018-02-01T08:24:06.156Z,3.94
2018-02-01T08:25:10.949Z,3.94
2018-02-01T08:26:05.594Z,3.94
2018-02-01T08:27:06.305Z,4.00
2018-02-01T08:28:05.662Z,4.00
2018-02-01T08:29:05.739Z,4.00
2018-02-01T08:30:06.627Z,4.00
2018-02-01T08:31:06.101Z,4.00
2018-02-01T08:32:05.893Z,4.00
2018-02-01T08:33:05.803Z,4.06
2018-02-01T08:34:06.464Z,4.06
2018-02-01T08:35:06.069Z,4.06
2018-02-01T08:36:05.662Z,4.06
2018-02-01T08:37:06.114Z,4.06
2018-02-01T08:38:06.393Z,4.12
2018-02-01T08:39:07.188Z,4.12
2018-02-01T08:40:06.079Z,4.12
2018-02-01T08:41:05.607Z,4.19
2018-02-01T08:42:06.213Z,4.19
2018-02-01T08:43:06.252Z,4.19
2018-02-01T08:44:05.503Z,4.19
2018-02-01T08:45:06.126Z,4.25
2018-02-01T08:46:05.929Z,4.25
2018-02-01T08:47:06.439Z,4.25
2018-02-01T08:48:06.155Z,4.31
2018-02-01T08:49:06.222Z,4.31
2018-02-01T08:50:05.998Z,4.31
2018-02-01T08:51:05.902Z,4.31
2018-02-01T08:52:05.874Z,4.38
2018-02-01T08:53:05.591Z,4.38
2018-02-01T08:54:05.746Z,4.44
2018-02-01T08:55:06.240Z,4.38
2018-02-01T08:56:05.906Z,4.44
2018-02-01T08:57:05.665Z,4.44
2018-02-01T08:58:06.558Z,4.44
2018-02-01T08:59:06.137Z,4.50
2018-02-01T09:00:06.100Z,4.50
2018-02-01T09:01:05.986Z,4.50
2018-02-01T09:02:06.095Z,4.50
2018-02-01T09:03:06.160Z,4.56
2018-02-01T09:04:05.824Z,4.56
2018-02-01T09:05:06.309Z,4.62
2018-02-01T09:06:06.002Z,4.62
2018-02-01T09:07:05.750Z,4.62
2018-02-01T09:08:06.157Z,4.62
2018-02-01T09:09:05.726Z,4.62
2018-02-01T09:10:06.055Z,4.62
2018-02-01T09:11:10.991Z,4.69
2018-02-01T09:12:06.390Z,4.69
2018-02-01T09:13:06.068Z,4.69
2018-02-01T09:14:05.741Z,4.75
2018-02-01T09:15:06.423Z,4.75
2018-02-01T09:16:06.062Z,4.75
2018-02-01T09:17:05.737Z,4.75
2018-02-01T09:18:06.807Z,4.81
2018-02-01T09:19:05.806Z,4.81
2018-02-01T09:20:06.385Z,4.81
2018-02-01T09:21:06.597Z,4.81
2018-02-01T09:22:06.272Z,4.88
2018-02-01T09:23:06.305Z,4.88
2018-02-01T09:24:06.482Z,4.88
2018-02-01T09:25:05.668Z,4.94
2018-02-01T09:26:06.440Z,4.94
2018-02-01T09:27:05.914Z,4.94
2018-02-01T09:28:06.614Z,5.00
2018-02-01T09:29:06.336Z,5.00
2018-02-01T09:30:06.064Z,5.00
2018-02-01T09:31:05.670Z,5.00
2018-02-01T09:32:06.140Z,5.06
2018-02-01T09:33:05.900Z,5.06
2018-02-01T09:34:06.063Z,5.06
2018-02-01T09:35:05.669Z,5.06
2018-02-01T09:36:05.654Z,5.06
2018-02-01T09:37:06.000Z,5.12
2018-02-01T09:38:05.874Z,5.12
2018-02-01T09:39:05.582Z,5.12
2018-02-01T09:40:05.645Z,5.12
2018-02-01T09:41:05.907Z,5.19
2018-02-01T09:42:05.573Z,5.19
2018-02-01T09:43:06.287Z,5.25
2018-02-01T09:44:05.907Z,5.25
2018-02-01T09:45:05.838Z,5.31
2018-02-01T09:46:05.822Z,5.31
2018-02-01T09:47:11.035Z,5.31
2018-02-01T09:48:10.660Z,5.31
2018-02-01T09:49:05.989Z,5.31
2018-02-01T09:50:06.908Z,5.31
2018-02-01T09:51:05.974Z,5.31
2018-02-01T09:52:05.656Z,5.31
2018-02-01T09:53:05.927Z,5.31
2018-02-01T09:54:06.152Z,5.31
2018-02-01T09:55:05.989Z,5.38
2018-02-01T09:56:05.742Z,5.38
2018-02-01T09:57:06.383Z,5.38
2018-02-01T09:58:06.219Z,5.38
2018-02-01T09:59:06.303Z,5.38
2018-02-01T10:00:05.973Z,5.38
2018-02-01T10:01:05.536Z,5.38
2018-02-01T10:02:06.302Z,5.38
2018-02-01T10:03:05.992Z,5.38
2018-02-01T10:04:10.671Z,5.38
2018-02-01T10:05:05.899Z,5.38
2018-02-01T10:06:06.314Z,5.38
2018-02-01T10:07:06.388Z,5.38
2018-02-01T10:08:06.229Z,5.38
2018-02-01T10:09:06.386Z,5.38
2018-02-01T10:10:11.540Z,5.38
2018-02-01T10:11:06.281Z,5.38
2018-02-01T10:12:05.773Z,5.38
2018-02-01T10:13:05.998Z,5.38
2018-02-01T10:14:05.666Z,5.38
2018-02-01T10:15:06.392Z,5.38
2018-02-01T10:16:06.387Z,5.38
2018-02-01T10:17:06.561Z,5.38
2018-02-01T10:18:06.032Z,5.38
2018-02-01T10:19:05.797Z,5.38
2018-02-01T10:20:05.898Z,5.38
2018-02-01T10:21:06.011Z,5.38
2018-02-01T10:22:05.752Z,5.38
2018-02-01T10:23:05.673Z,5.38
2018-02-01T10:24:06.385Z,5.38
2018-02-01T10:25:11.426Z,5.38
2018-02-01T10:26:11.165Z,5.38
2018-02-01T10:27:05.752Z,5.38
2018-02-01T10:28:06.398Z,5.38
2018-02-01T10:29:06.066Z,5.38
2018-02-01T10:30:05.597Z,5.38
2018-02-01T10:31:06.753Z,5.38
2018-02-01T10:32:05.563Z,5.38
2018-02-01T10:33:06.891Z,5.38
2018-02-01T10:34:06.087Z,5.38
2018-02-01T10:35:06.302Z,5.38
2018-02-01T10:36:11.456Z,5.38
2018-02-01T10:37:06.407Z,5.38
2018-02-01T10:38:05.918Z,5.38
2018-02-01T10:39:05.662Z,5.38
2018-02-01T10:40:06.712Z,5.38
2018-02-01T10:41:05.986Z,5.38
2018-02-01T10:42:05.992Z,5.44
2018-02-01T10:43:06.146Z,5.44
2018-02-01T10:44:05.866Z,5.44
2018-02-01T10:45:06.728Z,5.44
2018-02-01T10:46:05.839Z,5.44
2018-02-01T10:47:06.576Z,5.44
2018-02-01T10:48:06.471Z,5.44
2018-02-01T10:49:05.982Z,5.44
2018-02-01T10:50:06.228Z,5.44
2018-02-01T10:51:06.349Z,5.44
2018-02-01T10:52:06.388Z,5.44
2018-02-01T10:53:07.433Z,5.50
2018-02-01T10:54:06.103Z,5.50
2018-02-01T10:55:06.396Z,5.50
2018-02-01T10:56:06.385Z,5.50
2018-02-01T10:57:05.831Z,5.50
2018-02-01T10:58:38.197Z,5.50
2018-02-01T10:59:05.833Z,5.50
2018-02-01T11:00:10.840Z,5.50
2018-02-01T11:01:06.195Z,5.50
2018-02-01T11:02:11.487Z,5.50
2018-02-01T11:03:16.276Z,5.56
2018-02-01T11:04:05.960Z,5.56
2018-02-01T11:05:06.379Z,5.56
2018-02-01T11:06:06.073Z,5.56
2018-02-01T11:07:05.994Z,5.56
2018-02-01T11:08:06.234Z,5.56
2018-02-01T11:09:06.462Z,5.56
2018-02-01T11:10:05.992Z,5.62
2018-02-01T11:11:06.104Z,5.62
2018-02-01T11:12:05.511Z,5.62
2018-02-01T11:13:06.393Z,5.62
2018-02-01T11:14:05.514Z,5.62
2018-02-01T11:15:06.478Z,5.62
2018-02-01T11:16:06.555Z,5.69
2018-02-01T11:17:05.743Z,5.69
2018-02-01T11:18:06.164Z,5.69
2018-02-01T11:19:06.138Z,5.69
2018-02-01T11:20:06.293Z,5.69
2018-02-01T11:21:06.158Z,5.75
2018-02-01T11:22:06.397Z,5.75
2018-02-01T11:23:05.901Z,5.75
2018-02-01T11:24:05.516Z,5.75
2018-02-01T11:25:06.062Z,5.75
2018-02-01T11:26:05.752Z,5.75
2018-02-01T11:27:06.240Z,5.81
2018-02-01T11:28:06.133Z,5.81
2018-02-01T11:29:06.240Z,5.81
2018-02-01T11:30:06.387Z,5.81
2018-02-01T11:31:05.983Z,5.81
2018-02-01T11:32:06.437Z,5.81
2018-02-01T11:33:06.206Z,5.81
2018-02-01T11:34:05.661Z,5.81
2018-02-01T11:35:06.172Z,5.81
2018-02-01T11:36:05.997Z,5.88
2018-02-01T11:37:05.813Z,5.81
2018-02-01T11:38:06.258Z,5.81
2018-02-01T11:39:06.071Z,5.81
2018-02-01T11:40:05.512Z,5.88
2018-02-01T11:41:06.317Z,5.88
2018-02-01T11:42:05.983Z,5.88
2018-02-01T11:43:05.987Z,5.88
2018-02-01T11:44:05.570Z,5.88
2018-02-01T11:45:06.299Z,5.88
2018-02-01T11:46:06.139Z,5.88
2018-02-01T11:47:06.059Z,5.88
2018-02-01T11:48:06.542Z,5.94
2018-02-01T11:49:11.228Z,5.94
2018-02-01T11:50:05.741Z,5.94
2018-02-01T11:51:05.507Z,5.94
2018-02-01T11:52:06.475Z,5.94
2018-02-01T11:53:11.886Z,5.94
2018-02-01T11:54:06.642Z,5.94
2018-02-01T11:55:06.316Z,5.94
2018-02-01T11:56:06.154Z,5.94
2018-02-01T11:57:06.071Z,5.94
2018-02-01T11:58:05.970Z,5.94
2018-02-01T11:59:06.204Z,5.94
2018-02-01T12:00:05.599Z,5.94
2018-02-01T12:01:05.740Z,5.94
2018-02-01T12:02:06.109Z,5.94
2018-02-01T12:03:10.736Z,5.94
2018-02-01T12:04:06.312Z,5.94
2018-02-01T12:05:06.221Z,5.94
2018-02-01T12:06:06.224Z,5.94
2018-02-01T12:07:05.768Z,5.94
2018-02-01T12:08:06.302Z,5.94
2018-02-01T12:09:05.584Z,5.94
2018-02-01T12:10:05.768Z,5.94
2018-02-01T12:11:05.677Z,5.94
2018-02-01T12:12:05.658Z,6.00
2018-02-01T12:13:06.312Z,6.00
2018-02-01T12:14:05.858Z,6.00
2018-02-01T12:15:06.318Z,6.00
2018-02-01T12:16:05.668Z,6.00
2018-02-01T12:17:05.830Z,6.00
2018-02-01T12:18:06.470Z,6.00
2018-02-01T12:19:11.546Z,6.00
2018-02-01T12:20:06.070Z,6.00
2018-02-01T12:21:05.757Z,6.00
2018-02-01T12:22:05.748Z,6.00
2018-02-01T12:23:05.899Z,6.06
2018-02-01T12:24:05.807Z,6.00
2018-02-01T12:25:11.149Z,6.06
2018-02-01T12:26:05.581Z,6.06
2018-02-01T12:27:06.233Z,6.00
2018-02-01T12:28:05.978Z,6.00
2018-02-01T12:29:05.602Z,6.00
2018-02-01T12:30:06.396Z,6.00
2018-02-01T12:31:06.311Z,6.00
2018-02-01T12:32:05.978Z,6.06
2018-02-01T12:33:05.507Z,6.06
2018-02-01T12:34:05.505Z,6.06
2018-02-01T12:35:05.745Z,6.06
2018-02-01T12:36:06.297Z,6.00
2018-02-01T12:37:05.784Z,6.06
2018-02-01T12:38:06.069Z,6.06
2018-02-01T12:39:05.869Z,6.00
2018-02-01T12:40:05.886Z,6.00
2018-02-01T12:41:05.904Z,6.00
2018-02-01T12:42:06.459Z,6.00
2018-02-01T12:43:10.982Z,6.00
2018-02-01T12:44:05.665Z,6.00
2018-02-01T12:45:06.311Z,6.06
2018-02-01T12:46:11.587Z,6.06
2018-02-01T12:47:06.135Z,6.06
2018-02-01T12:48:06.221Z,6.00
2018-02-01T12:49:05.991Z,6.06
2018-02-01T12:50:05.855Z,6.00
2018-02-01T12:51:06.003Z,6.00
2018-02-01T12:52:06.063Z,6.00
2018-02-01T12:53:05.584Z,6.00
2018-02-01T12:54:05.743Z,6.00
2018-02-01T12:55:06.293Z,6.00
2018-02-01T12:56:07.198Z,6.00
2018-02-01T12:57:05.836Z,6.00
2018-02-01T12:58:05.661Z,6.00
2018-02-01T12:59:06.148Z,6.00
2018-02-01T13:00:05.934Z,6.00
2018-02-01T13:01:07.333Z,6.00
2018-02-01T13:02:06.310Z,6.00
2018-02-01T13:03:11.299Z,6.00
2018-02-01T13:04:05.816Z,6.00
2018-02-01T13:05:05.656Z,6.00
2018-02-01T13:06:05.872Z,6.00
2018-02-01T13:07:05.824Z,5.94
2018-02-01T13:08:06.331Z,5.94
2018-02-01T13:09:05.989Z,5.94
2018-02-01T13:10:06.079Z,5.94
2018-02-01T13:11:06.173Z,5.94
2018-02-01T13:12:06.224Z,5.94
2018-02-01T13:13:05.912Z,5.94
2018-02-01T13:14:05.986Z,5.94
2018-02-01T13:15:05.664Z,5.94
2018-02-01T13:16:06.543Z,5.94
2018-02-01T13:17:05.982Z,5.94
2018-02-01T13:18:05.988Z,5.94